sensor_id;sensor_type;location;lat;lon;timestamp;P1;durP1;ratioP1;P2;durP2;ratioP2
78555;SDS011;67851;51.354;7.744;2023-04-25T00:02:05;28.63;;;8.35;;
78555;SDS011;67851;51.354;7.744;2023-04-25T00:04:32;28.40;;;9.63;;
78555;SDS011;67851;51.354;7.744;2023-04-25T00:06:58;34.17;;;9.63;;
78555;SDS011;67851;51.354;7.744;2023-04-25T00:09:27;27.65;;;8.55;;
78555;SDS011;67851;51.354;7.744;2023-04-25T00:11:53;28.60;;;8.90;;
78555;SDS011;67851;51.354;7.744;2023-04-25T00:14:18;25.40;;;9.13;;
78555;SDS011;67851;51.354;7.744;2023-04-25T00:16:44;31.95;;;8.63;;
78555;SDS011;67851;51.354;7.744;2023-04-25T00:19:09;28.83;;;8.68;;
78555;SDS011;67851;51.354;7.744;2023-04-25T00:21:35;23.13;;;8.07;;
78555;SDS011;67851;51.354;7.744;2023-04-25T00:24:02;32.47;;;9.05;;
78555;SDS011;67851;51.354;7.744;2023-04-25T00:26:28;27.42;;;6.82;;
78555;SDS011;67851;51.354;7.744;2023-04-25T00:28:54;18.65;;;7.30;;
78555;SDS011;67851;51.354;7.744;2023-04-25T00:31:19;20.40;;;7.28;;
78555;SDS011;67851;51.354;7.744;2023-04-25T00:33:45;14.23;;;5.85;;
78555;SDS011;67851;51.354;7.744;2023-04-25T00:36:11;16.42;;;6.45;;
78555;SDS011;67851;51.354;7.744;2023-04-25T00:38:36;22.40;;;6.82;;
78555;SDS011;67851;51.354;7.744;2023-04-25T00:41:04;19.65;;;6.55;;
78555;SDS011;67851;51.354;7.744;2023-04-25T00:43:31;32.78;;;6.38;;
78555;SDS011;67851;51.354;7.744;2023-04-25T00:45:57;16.52;;;5.55;;
78555;SDS011;67851;51.354;7.744;2023-04-25T00:48:25;19.48;;;7.88;;
78555;SDS011;67851;51.354;7.744;2023-04-25T00:50:52;17.30;;;6.40;;
78555;SDS011;67851;51.354;7.744;2023-04-25T00:53:22;20.13;;;6.38;;
78555;SDS011;67851;51.354;7.744;2023-04-25T00:55:48;22.85;;;7.65;;
78555;SDS011;67851;51.354;7.744;2023-04-25T00:58:19;16.42;;;5.97;;
78555;SDS011;67851;51.354;7.744;2023-04-25T01:00:46;19.27;;;7.55;;
78555;SDS011;67851;51.354;7.744;2023-04-25T01:03:13;16.92;;;6.85;;
78555;SDS011;67851;51.354;7.744;2023-04-25T01:05:41;12.77;;;6.70;;
78555;SDS011;67851;51.354;7.744;2023-04-25T01:08:07;19.60;;;8.00;;
78555;SDS011;67851;51.354;7.744;2023-04-25T01:10:33;20.52;;;8.35;;
78555;SDS011;67851;51.354;7.744;2023-04-25T01:12:59;19.45;;;7.93;;
78555;SDS011;67851;51.354;7.744;2023-04-25T01:15:24;20.23;;;8.95;;
78555;SDS011;67851;51.354;7.744;2023-04-25T01:17:51;25.98;;;9.18;;
78555;SDS011;67851;51.354;7.744;2023-04-25T01:20:18;17.45;;;8.20;;
78555;SDS011;67851;51.354;7.744;2023-04-25T01:22:47;23.98;;;11.88;;
78555;SDS011;67851;51.354;7.744;2023-04-25T01:25:12;25.67;;;12.27;;
78555;SDS011;67851;51.354;7.744;2023-04-25T01:27:38;25.67;;;10.98;;
78555;SDS011;67851;51.354;7.744;2023-04-25T01:30:04;30.52;;;12.07;;
78555;SDS011;67851;51.354;7.744;2023-04-25T01:32:33;20.90;;;11.35;;
78555;SDS011;67851;51.354;7.744;2023-04-25T01:35:10;19.63;;;12.10;;
78555;SDS011;67851;51.354;7.744;2023-04-25T01:37:40;24.60;;;11.17;;
78555;SDS011;67851;51.354;7.744;2023-04-25T01:40:08;19.40;;;11.45;;
78555;SDS011;67851;51.354;7.744;2023-04-25T01:42:36;26.52;;;12.07;;
78555;SDS011;67851;51.354;7.744;2023-04-25T01:45:03;24.85;;;12.32;;
78555;SDS011;67851;51.354;7.744;2023-04-25T01:47:29;29.02;;;12.07;;
78555;SDS011;67851;51.354;7.744;2023-04-25T01:49:54;23.45;;;11.80;;
78555;SDS011;67851;51.354;7.744;2023-04-25T01:52:21;30.30;;;12.20;;
78555;SDS011;67851;51.354;7.744;2023-04-25T01:54:47;26.48;;;12.57;;
78555;SDS011;67851;51.354;7.744;2023-04-25T01:57:14;25.55;;;13.90;;
78555;SDS011;67851;51.354;7.744;2023-04-25T01:59:41;29.85;;;13.60;;
78555;SDS011;67851;51.354;7.744;2023-04-25T02:02:15;21.75;;;13.85;;
78555;SDS011;67851;51.354;7.744;2023-04-25T02:04:41;25.45;;;14.70;;
78555;SDS011;67851;51.354;7.744;2023-04-25T02:07:08;33.03;;;15.13;;
78555;SDS011;67851;51.354;7.744;2023-04-25T02:09:43;26.98;;;13.90;;
78555;SDS011;67851;51.354;7.744;2023-04-25T02:12:10;28.02;;;13.68;;
78555;SDS011;67851;51.354;7.744;2023-04-25T02:15:08;31.83;;;15.10;;
78555;SDS011;67851;51.354;7.744;2023-04-25T02:17:41;35.92;;;15.18;;
78555;SDS011;67851;51.354;7.744;2023-04-25T02:20:07;27.60;;;13.57;;
78555;SDS011;67851;51.354;7.744;2023-04-25T02:22:33;28.73;;;15.27;;
78555;SDS011;67851;51.354;7.744;2023-04-25T02:25:00;27.25;;;16.63;;
78555;SDS011;67851;51.354;7.744;2023-04-25T02:27:26;30.40;;;14.90;;
78555;SDS011;67851;51.354;7.744;2023-04-25T02:29:51;36.75;;;16.90;;
78555;SDS011;67851;51.354;7.744;2023-04-25T02:32:17;31.77;;;16.60;;
78555;SDS011;67851;51.354;7.744;2023-04-25T02:34:43;36.95;;;16.70;;
78555;SDS011;67851;51.354;7.744;2023-04-25T02:37:08;37.78;;;18.38;;
78555;SDS011;67851;51.354;7.744;2023-04-25T02:39:34;35.70;;;19.85;;
78555;SDS011;67851;51.354;7.744;2023-04-25T02:41:59;45.88;;;21.27;;
78555;SDS011;67851;51.354;7.744;2023-04-25T02:44:28;46.97;;;21.50;;
78555;SDS011;67851;51.354;7.744;2023-04-25T02:46:54;48.00;;;21.75;;
78555;SDS011;67851;51.354;7.744;2023-04-25T02:49:19;52.92;;;23.08;;
78555;SDS011;67851;51.354;7.744;2023-04-25T02:51:45;43.40;;;21.13;;
78555;SDS011;67851;51.354;7.744;2023-04-25T02:54:10;58.70;;;22.40;;
78555;SDS011;67851;51.354;7.744;2023-04-25T02:56:40;55.35;;;21.65;;
78555;SDS011;67851;51.354;7.744;2023-04-25T02:59:10;45.15;;;21.50;;
78555;SDS011;67851;51.354;7.744;2023-04-25T03:01:39;44.55;;;22.63;;
78555;SDS011;67851;51.354;7.744;2023-04-25T03:04:04;38.97;;;21.52;;
78555;SDS011;67851;51.354;7.744;2023-04-25T03:06:30;47.38;;;23.17;;
78555;SDS011;67851;51.354;7.744;2023-04-25T03:08:56;45.10;;;19.52;;
78555;SDS011;67851;51.354;7.744;2023-04-25T03:11:22;44.40;;;19.35;;
78555;SDS011;67851;51.354;7.744;2023-04-25T03:13:47;39.63;;;18.52;;
78555;SDS011;67851;51.354;7.744;2023-04-25T03:16:13;36.33;;;18.85;;
78555;SDS011;67851;51.354;7.744;2023-04-25T03:18:38;37.60;;;18.70;;
78555;SDS011;67851;51.354;7.744;2023-04-25T03:21:05;34.58;;;16.80;;
78555;SDS011;67851;51.354;7.744;2023-04-25T03:23:31;35.35;;;18.75;;
78555;SDS011;67851;51.354;7.744;2023-04-25T03:25:56;38.35;;;17.95;;
78555;SDS011;67851;51.354;7.744;2023-04-25T03:28:22;33.13;;;16.42;;
78555;SDS011;67851;51.354;7.744;2023-04-25T03:30:48;37.38;;;16.33;;
78555;SDS011;67851;51.354;7.744;2023-04-25T03:33:13;37.92;;;17.90;;
78555;SDS011;67851;51.354;7.744;2023-04-25T03:35:39;35.65;;;18.42;;
78555;SDS011;67851;51.354;7.744;2023-04-25T03:38:06;31.70;;;14.38;;
78555;SDS011;67851;51.354;7.744;2023-04-25T03:40:37;32.00;;;15.18;;
78555;SDS011;67851;51.354;7.744;2023-04-25T03:43:12;29.13;;;14.43;;
78555;SDS011;67851;51.354;7.744;2023-04-25T03:45:42;31.77;;;13.82;;
78555;SDS011;67851;51.354;7.744;2023-04-25T03:48:07;32.70;;;14.30;;
78555;SDS011;67851;51.354;7.744;2023-04-25T03:50:33;33.15;;;15.80;;
78555;SDS011;67851;51.354;7.744;2023-04-25T03:52:59;25.60;;;13.88;;
78555;SDS011;67851;51.354;7.744;2023-04-25T03:55:28;31.80;;;16.02;;
78555;SDS011;67851;51.354;7.744;2023-04-25T03:57:54;30.60;;;14.63;;
78555;SDS011;67851;51.354;7.744;2023-04-25T04:00:19;42.83;;;18.38;;
78555;SDS011;67851;51.354;7.744;2023-04-25T04:02:50;39.17;;;18.92;;
78555;SDS011;67851;51.354;7.744;2023-04-25T04:05:17;44.15;;;21.58;;
78555;SDS011;67851;51.354;7.744;2023-04-25T04:10:16;41.08;;;19.80;;
78555;SDS011;67851;51.354;7.744;2023-04-25T04:12:42;40.75;;;20.17;;
78555;SDS011;67851;51.354;7.744;2023-04-25T04:15:08;50.20;;;20.40;;
78555;SDS011;67851;51.354;7.744;2023-04-25T04:17:35;45.60;;;19.25;;
78555;SDS011;67851;51.354;7.744;2023-04-25T04:20:00;43.92;;;18.67;;
78555;SDS011;67851;51.354;7.744;2023-04-25T04:22:29;43.92;;;20.08;;
78555;SDS011;67851;51.354;7.744;2023-04-25T04:24:58;44.80;;;19.55;;
78555;SDS011;67851;51.354;7.744;2023-04-25T04:27:42;44.13;;;19.92;;
78555;SDS011;67851;51.354;7.744;2023-04-25T04:30:48;49.92;;;20.45;;
78555;SDS011;67851;51.354;7.744;2023-04-25T04:33:16;59.00;;;20.13;;
78555;SDS011;67851;51.354;7.744;2023-04-25T04:35:45;61.03;;;23.00;;
78555;SDS011;67851;51.354;7.744;2023-04-25T04:38:13;64.47;;;20.05;;
78555;SDS011;67851;51.354;7.744;2023-04-25T04:40:41;51.08;;;20.23;;
78555;SDS011;67851;51.354;7.744;2023-04-25T04:43:14;48.47;;;19.90;;
78555;SDS011;67851;51.354;7.744;2023-04-25T04:46:02;56.92;;;21.83;;
78555;SDS011;67851;51.354;7.744;2023-04-25T04:48:29;56.40;;;20.70;;
78555;SDS011;67851;51.354;7.744;2023-04-25T04:51:19;56.95;;;19.38;;
78555;SDS011;67851;51.354;7.744;2023-04-25T04:54:21;52.88;;;18.88;;
78555;SDS011;67851;51.354;7.744;2023-04-25T04:57:16;54.65;;;20.25;;
78555;SDS011;67851;51.354;7.744;2023-04-25T05:00:11;49.88;;;17.05;;
78555;SDS011;67851;51.354;7.744;2023-04-25T05:03:03;49.67;;;18.88;;
78555;SDS011;67851;51.354;7.744;2023-04-25T05:06:08;35.95;;;14.48;;
78555;SDS011;67851;51.354;7.744;2023-04-25T05:08:46;33.38;;;12.35;;
78555;SDS011;67851;51.354;7.744;2023-04-25T05:11:25;19.92;;;7.72;;
78555;SDS011;67851;51.354;7.744;2023-04-25T05:18:04;20.50;;;7.32;;
78555;SDS011;67851;51.354;7.744;2023-04-25T05:20:53;13.73;;;6.03;;
78555;SDS011;67851;51.354;7.744;2023-04-25T05:23:41;19.27;;;5.88;;
78555;SDS011;67851;51.354;7.744;2023-04-25T05:26:41;15.05;;;5.95;;
78555;SDS011;67851;51.354;7.744;2023-04-25T05:29:25;14.27;;;6.13;;
78555;SDS011;67851;51.354;7.744;2023-04-25T05:32:14;15.82;;;6.28;;
78555;SDS011;67851;51.354;7.744;2023-04-25T05:34:39;14.43;;;5.40;;
78555;SDS011;67851;51.354;7.744;2023-04-25T05:37:11;18.38;;;5.85;;
78555;SDS011;67851;51.354;7.744;2023-04-25T05:39:48;19.23;;;6.10;;
78555;SDS011;67851;51.354;7.744;2023-04-25T05:42:29;23.92;;;6.10;;
78555;SDS011;67851;51.354;7.744;2023-04-25T05:45:06;15.30;;;5.53;;
78555;SDS011;67851;51.354;7.744;2023-04-25T05:47:44;14.85;;;5.47;;
78555;SDS011;67851;51.354;7.744;2023-04-25T05:50:21;18.45;;;5.55;;
78555;SDS011;67851;51.354;7.744;2023-04-25T05:53:09;21.75;;;5.85;;
78555;SDS011;67851;51.354;7.744;2023-04-25T05:55:38;22.55;;;5.90;;
78555;SDS011;67851;51.354;7.744;2023-04-25T05:58:24;19.27;;;5.35;;
78555;SDS011;67851;51.354;7.744;2023-04-25T06:00:49;20.65;;;5.90;;
78555;SDS011;67851;51.354;7.744;2023-04-25T06:03:16;20.55;;;5.68;;
78555;SDS011;67851;51.354;7.744;2023-04-25T06:05:42;25.83;;;6.03;;
78555;SDS011;67851;51.354;7.744;2023-04-25T06:08:08;25.20;;;6.30;;
78555;SDS011;67851;51.354;7.744;2023-04-25T06:10:36;22.52;;;6.57;;
78555;SDS011;67851;51.354;7.744;2023-04-25T06:13:02;24.23;;;6.32;;
78555;SDS011;67851;51.354;7.744;2023-04-25T06:15:29;22.35;;;5.93;;
78555;SDS011;67851;51.354;7.744;2023-04-25T06:17:59;17.08;;;5.35;;
78555;SDS011;67851;51.354;7.744;2023-04-25T06:20:24;25.88;;;6.75;;
78555;SDS011;67851;51.354;7.744;2023-04-25T06:22:52;24.17;;;6.82;;
78555;SDS011;67851;51.354;7.744;2023-04-25T06:25:19;31.80;;;7.28;;
78555;SDS011;67851;51.354;7.744;2023-04-25T06:27:45;26.80;;;6.80;;
78555;SDS011;67851;51.354;7.744;2023-04-25T06:30:11;28.73;;;7.60;;
78555;SDS011;67851;51.354;7.744;2023-04-25T06:32:38;28.83;;;6.97;;
78555;SDS011;67851;51.354;7.744;2023-04-25T06:35:04;20.98;;;7.15;;
78555;SDS011;67851;51.354;7.744;2023-04-25T06:37:32;26.05;;;7.05;;
78555;SDS011;67851;51.354;7.744;2023-04-25T06:39:58;22.10;;;6.95;;
78555;SDS011;67851;51.354;7.744;2023-04-25T06:42:23;25.17;;;7.97;;
78555;SDS011;67851;51.354;7.744;2023-04-25T06:44:56;28.60;;;8.40;;
78555;SDS011;67851;51.354;7.744;2023-04-25T06:47:22;31.73;;;8.43;;
78555;SDS011;67851;51.354;7.744;2023-04-25T06:49:49;22.45;;;9.43;;
78555;SDS011;67851;51.354;7.744;2023-04-25T06:52:16;27.10;;;8.93;;
78555;SDS011;67851;51.354;7.744;2023-04-25T06:54:44;30.48;;;10.48;;
78555;SDS011;67851;51.354;7.744;2023-04-25T06:57:44;26.00;;;10.65;;
78555;SDS011;67851;51.354;7.744;2023-04-25T07:00:30;22.77;;;9.90;;
78555;SDS011;67851;51.354;7.744;2023-04-25T07:02:56;36.15;;;10.85;;
78555;SDS011;67851;51.354;7.744;2023-04-25T07:05:21;36.97;;;12.75;;
78555;SDS011;67851;51.354;7.744;2023-04-25T07:07:47;28.80;;;9.55;;
78555;SDS011;67851;51.354;7.744;2023-04-25T07:10:13;22.83;;;9.77;;
78555;SDS011;67851;51.354;7.744;2023-04-25T07:12:38;24.63;;;10.30;;
78555;SDS011;67851;51.354;7.744;2023-04-25T07:15:04;21.50;;;9.63;;
78555;SDS011;67851;51.354;7.744;2023-04-25T07:17:31;25.92;;;9.60;;
78555;SDS011;67851;51.354;7.744;2023-04-25T07:19:59;25.30;;;9.50;;
78555;SDS011;67851;51.354;7.744;2023-04-25T07:22:26;41.60;;;9.30;;
78555;SDS011;67851;51.354;7.744;2023-04-25T07:24:52;31.33;;;8.93;;
78555;SDS011;67851;51.354;7.744;2023-04-25T07:27:20;24.42;;;9.55;;
78555;SDS011;67851;51.354;7.744;2023-04-25T07:30:01;17.38;;;7.82;;
78555;SDS011;67851;51.354;7.744;2023-04-25T07:32:27;24.77;;;9.10;;
78555;SDS011;67851;51.354;7.744;2023-04-25T07:34:53;22.00;;;8.50;;
78555;SDS011;67851;51.354;7.744;2023-04-25T07:37:18;27.95;;;9.10;;
78555;SDS011;67851;51.354;7.744;2023-04-25T07:39:58;22.05;;;9.05;;
78555;SDS011;67851;51.354;7.744;2023-04-25T07:42:24;27.80;;;8.73;;
78555;SDS011;67851;51.354;7.744;2023-04-25T07:44:50;28.17;;;8.65;;
78555;SDS011;67851;51.354;7.744;2023-04-25T07:47:16;27.20;;;8.35;;
78555;SDS011;67851;51.354;7.744;2023-04-25T07:49:44;26.23;;;8.20;;
78555;SDS011;67851;51.354;7.744;2023-04-25T07:52:10;23.00;;;7.60;;
78555;SDS011;67851;51.354;7.744;2023-04-25T07:54:39;24.35;;;6.63;;
78555;SDS011;67851;51.354;7.744;2023-04-25T07:57:12;21.58;;;7.00;;
78555;SDS011;67851;51.354;7.744;2023-04-25T07:59:39;37.33;;;8.38;;
78555;SDS011;67851;51.354;7.744;2023-04-25T08:02:05;29.15;;;7.97;;
78555;SDS011;67851;51.354;7.744;2023-04-25T08:04:30;24.70;;;5.47;;
78555;SDS011;67851;51.354;7.744;2023-04-25T08:07:02;12.75;;;4.63;;
78555;SDS011;67851;51.354;7.744;2023-04-25T08:09:35;22.50;;;5.20;;
78555;SDS011;67851;51.354;7.744;2023-04-25T08:12:05;19.95;;;5.50;;
78555;SDS011;67851;51.354;7.744;2023-04-25T08:14:32;28.40;;;5.25;;
78555;SDS011;67851;51.354;7.744;2023-04-25T08:17:02;19.00;;;4.50;;
78555;SDS011;67851;51.354;7.744;2023-04-25T08:19:30;24.15;;;5.18;;
78555;SDS011;67851;51.354;7.744;2023-04-25T08:21:56;21.20;;;5.07;;
78555;SDS011;67851;51.354;7.744;2023-04-25T08:24:28;15.10;;;4.25;;
78555;SDS011;67851;51.354;7.744;2023-04-25T08:26:54;18.92;;;5.05;;
78555;SDS011;67851;51.354;7.744;2023-04-25T08:29:21;23.42;;;4.95;;
78555;SDS011;67851;51.354;7.744;2023-04-25T08:31:49;18.48;;;4.75;;
78555;SDS011;67851;51.354;7.744;2023-04-25T08:34:16;20.58;;;5.18;;
78555;SDS011;67851;51.354;7.744;2023-04-25T08:36:47;22.63;;;5.10;;
78555;SDS011;67851;51.354;7.744;2023-04-25T08:39:28;28.33;;;8.10;;
78555;SDS011;67851;51.354;7.744;2023-04-25T08:42:14;20.38;;;5.00;;
78555;SDS011;67851;51.354;7.744;2023-04-25T08:44:40;26.10;;;5.80;;
78555;SDS011;67851;51.354;7.744;2023-04-25T08:47:06;18.40;;;4.20;;
78555;SDS011;67851;51.354;7.744;2023-04-25T08:49:38;19.40;;;4.82;;
78555;SDS011;67851;51.354;7.744;2023-04-25T08:52:06;28.48;;;5.30;;
78555;SDS011;67851;51.354;7.744;2023-04-25T08:54:34;22.23;;;4.40;;
78555;SDS011;67851;51.354;7.744;2023-04-25T08:57:03;14.48;;;4.03;;
78555;SDS011;67851;51.354;7.744;2023-04-25T08:59:29;27.65;;;5.43;;
78555;SDS011;67851;51.354;7.744;2023-04-25T09:01:55;13.48;;;4.20;;
78555;SDS011;67851;51.354;7.744;2023-04-25T09:04:21;12.00;;;4.57;;
78555;SDS011;67851;51.354;7.744;2023-04-25T09:06:47;17.45;;;4.25;;
78555;SDS011;67851;51.354;7.744;2023-04-25T09:09:13;20.30;;;4.93;;
78555;SDS011;67851;51.354;7.744;2023-04-25T09:11:39;18.52;;;4.88;;
78555;SDS011;67851;51.354;7.744;2023-04-25T09:14:17;20.45;;;4.78;;
78555;SDS011;67851;51.354;7.744;2023-04-25T09:17:01;15.25;;;3.92;;
78555;SDS011;67851;51.354;7.744;2023-04-25T09:19:54;15.82;;;4.10;;
78555;SDS011;67851;51.354;7.744;2023-04-25T09:22:30;13.98;;;3.15;;
78555;SDS011;67851;51.354;7.744;2023-04-25T09:24:55;15.43;;;3.22;;
78555;SDS011;67851;51.354;7.744;2023-04-25T09:27:25;15.00;;;3.33;;
78555;SDS011;67851;51.354;7.744;2023-04-25T09:30:18;14.10;;;4.10;;
78555;SDS011;67851;51.354;7.744;2023-04-25T09:33:07;13.70;;;3.13;;
78555;SDS011;67851;51.354;7.744;2023-04-25T09:35:42;16.65;;;3.55;;
78555;SDS011;67851;51.354;7.744;2023-04-25T09:38:14;9.73;;;3.38;;
78555;SDS011;67851;51.354;7.744;2023-04-25T09:43:32;13.35;;;3.85;;
78555;SDS011;67851;51.354;7.744;2023-04-25T09:45:58;11.93;;;3.05;;
78555;SDS011;67851;51.354;7.744;2023-04-25T09:48:27;24.73;;;3.45;;
78555;SDS011;67851;51.354;7.744;2023-04-25T09:51:04;11.57;;;2.92;;
78555;SDS011;67851;51.354;7.744;2023-04-25T09:53:32;14.23;;;3.05;;
78555;SDS011;67851;51.354;7.744;2023-04-25T09:56:10;11.57;;;3.05;;
78555;SDS011;67851;51.354;7.744;2023-04-25T09:58:36;18.23;;;2.95;;
78555;SDS011;67851;51.354;7.744;2023-04-25T10:01:07;18.65;;;3.50;;
78555;SDS011;67851;51.354;7.744;2023-04-25T10:03:47;14.93;;;2.95;;
78555;SDS011;67851;51.354;7.744;2023-04-25T10:06:45;13.38;;;2.50;;
78555;SDS011;67851;51.354;7.744;2023-04-25T10:09:11;12.43;;;3.47;;
78555;SDS011;67851;51.354;7.744;2023-04-25T10:11:38;14.07;;;3.03;;
78555;SDS011;67851;51.354;7.744;2023-04-25T10:14:05;12.45;;;3.05;;
78555;SDS011;67851;51.354;7.744;2023-04-25T10:16:30;11.15;;;3.05;;
78555;SDS011;67851;51.354;7.744;2023-04-25T10:18:56;12.45;;;2.80;;
78555;SDS011;67851;51.354;7.744;2023-04-25T10:21:22;12.13;;;3.47;;
78555;SDS011;67851;51.354;7.744;2023-04-25T10:23:48;8.07;;;2.03;;
78555;SDS011;67851;51.354;7.744;2023-04-25T10:26:14;14.57;;;2.85;;
78555;SDS011;67851;51.354;7.744;2023-04-25T10:28:59;10.48;;;2.60;;
78555;SDS011;67851;51.354;7.744;2023-04-25T10:31:26;13.38;;;3.20;;
78555;SDS011;67851;51.354;7.744;2023-04-25T10:33:52;16.02;;;3.60;;
78555;SDS011;67851;51.354;7.744;2023-04-25T10:36:19;17.58;;;3.20;;
78555;SDS011;67851;51.354;7.744;2023-04-25T10:38:48;13.40;;;3.47;;
78555;SDS011;67851;51.354;7.744;2023-04-25T10:41:18;10.23;;;2.55;;
78555;SDS011;67851;51.354;7.744;2023-04-25T10:43:49;14.13;;;2.67;;
78555;SDS011;67851;51.354;7.744;2023-04-25T10:46:28;13.35;;;2.67;;
78555;SDS011;67851;51.354;7.744;2023-04-25T10:48:59;8.93;;;3.03;;
78555;SDS011;67851;51.354;7.744;2023-04-25T10:51:30;11.68;;;3.20;;
78555;SDS011;67851;51.354;7.744;2023-04-25T10:53:59;10.00;;;2.55;;
78555;SDS011;67851;51.354;7.744;2023-04-25T10:56:29;14.82;;;3.00;;
78555;SDS011;67851;51.354;7.744;2023-04-25T10:59:08;13.47;;;2.80;;
78555;SDS011;67851;51.354;7.744;2023-04-25T11:01:41;9.98;;;3.10;;
78555;SDS011;67851;51.354;7.744;2023-04-25T11:10:07;11.13;;;2.47;;
78555;SDS011;67851;51.354;7.744;2023-04-25T11:12:33;8.85;;;2.38;;
78555;SDS011;67851;51.354;7.744;2023-04-25T11:15:03;7.20;;;2.63;;
78555;SDS011;67851;51.354;7.744;2023-04-25T11:17:30;8.35;;;2.42;;
78555;SDS011;67851;51.354;7.744;2023-04-25T11:19:56;8.07;;;1.80;;
78555;SDS011;67851;51.354;7.744;2023-04-25T11:22:22;5.75;;;1.80;;
78555;SDS011;67851;51.354;7.744;2023-04-25T11:24:48;7.43;;;1.52;;
78555;SDS011;67851;51.354;7.744;2023-04-25T11:27:14;4.45;;;1.40;;
78555;SDS011;67851;51.354;7.744;2023-04-25T11:29:40;4.72;;;1.77;;
78555;SDS011;67851;51.354;7.744;2023-04-25T11:32:06;9.27;;;2.08;;
78555;SDS011;67851;51.354;7.744;2023-04-25T11:34:33;7.78;;;2.08;;
78555;SDS011;67851;51.354;7.744;2023-04-25T11:37:00;4.18;;;1.50;;
78555;SDS011;67851;51.354;7.744;2023-04-25T11:39:28;8.38;;;1.85;;
78555;SDS011;67851;51.354;7.744;2023-04-25T11:41:54;7.85;;;1.63;;
78555;SDS011;67851;51.354;7.744;2023-04-25T11:44:21;11.55;;;2.28;;
78555;SDS011;67851;51.354;7.744;2023-04-25T11:46:47;11.43;;;1.85;;
78555;SDS011;67851;51.354;7.744;2023-04-25T11:49:14;5.95;;;1.73;;
78555;SDS011;67851;51.354;7.744;2023-04-25T11:51:41;5.10;;;1.67;;
78555;SDS011;67851;51.354;7.744;2023-04-25T11:54:08;10.82;;;2.38;;
78555;SDS011;67851;51.354;7.744;2023-04-25T11:56:35;10.55;;;1.88;;
78555;SDS011;67851;51.354;7.744;2023-04-25T11:59:01;7.25;;;1.90;;
78555;SDS011;67851;51.354;7.744;2023-04-25T12:01:29;11.90;;;2.00;;
78555;SDS011;67851;51.354;7.744;2023-04-25T12:04:09;8.48;;;2.10;;
78555;SDS011;67851;51.354;7.744;2023-04-25T12:06:40;9.40;;;2.13;;
78555;SDS011;67851;51.354;7.744;2023-04-25T12:09:07;9.98;;;2.53;;
78555;SDS011;67851;51.354;7.744;2023-04-25T12:11:42;12.70;;;2.20;;
78555;SDS011;67851;51.354;7.744;2023-04-25T12:14:11;12.25;;;2.30;;
78555;SDS011;67851;51.354;7.744;2023-04-25T12:16:44;7.22;;;2.60;;
78555;SDS011;67851;51.354;7.744;2023-04-25T12:19:13;12.07;;;2.55;;
78555;SDS011;67851;51.354;7.744;2023-04-25T12:21:40;5.95;;;1.65;;
78555;SDS011;67851;51.354;7.744;2023-04-25T12:24:24;8.55;;;2.33;;
78555;SDS011;67851;51.354;7.744;2023-04-25T12:27:02;8.55;;;2.13;;
78555;SDS011;67851;51.354;7.744;2023-04-25T12:29:29;10.38;;;1.90;;
78555;SDS011;67851;51.354;7.744;2023-04-25T12:31:57;7.53;;;1.70;;
78555;SDS011;67851;51.354;7.744;2023-04-25T12:34:23;7.38;;;1.95;;
78555;SDS011;67851;51.354;7.744;2023-04-25T12:36:49;10.20;;;1.85;;
78555;SDS011;67851;51.354;7.744;2023-04-25T12:39:16;7.18;;;1.52;;
78555;SDS011;67851;51.354;7.744;2023-04-25T12:41:47;11.40;;;2.05;;
78555;SDS011;67851;51.354;7.744;2023-04-25T12:44:16;6.07;;;1.50;;
78555;SDS011;67851;51.354;7.744;2023-04-25T12:46:42;6.93;;;1.92;;
78555;SDS011;67851;51.354;7.744;2023-04-25T12:49:07;4.82;;;1.83;;
78555;SDS011;67851;51.354;7.744;2023-04-25T12:51:35;5.80;;;1.42;;
78555;SDS011;67851;51.354;7.744;2023-04-25T12:54:01;5.78;;;1.52;;
78555;SDS011;67851;51.354;7.744;2023-04-25T12:56:31;5.68;;;1.20;;
78555;SDS011;67851;51.354;7.744;2023-04-25T12:58:56;7.57;;;1.42;;
78555;SDS011;67851;51.354;7.744;2023-04-25T13:01:22;4.13;;;1.15;;
78555;SDS011;67851;51.354;7.744;2023-04-25T13:03:49;5.75;;;1.48;;
78555;SDS011;67851;51.354;7.744;2023-04-25T13:06:15;3.67;;;1.13;;
78555;SDS011;67851;51.354;7.744;2023-04-25T13:08:42;2.83;;;1.10;;
78555;SDS011;67851;51.354;7.744;2023-04-25T13:11:08;3.30;;;1.10;;
78555;SDS011;67851;51.354;7.744;2023-04-25T13:13:34;6.05;;;1.30;;
78555;SDS011;67851;51.354;7.744;2023-04-25T13:16:04;5.03;;;1.20;;
78555;SDS011;67851;51.354;7.744;2023-04-25T13:18:30;7.72;;;1.38;;
78555;SDS011;67851;51.354;7.744;2023-04-25T13:20:56;6.18;;;1.27;;
78555;SDS011;67851;51.354;7.744;2023-04-25T13:23:23;4.32;;;1.27;;
78555;SDS011;67851;51.354;7.744;2023-04-25T13:25:49;5.57;;;1.35;;
78555;SDS011;67851;51.354;7.744;2023-04-25T13:28:15;3.05;;;1.10;;
78555;SDS011;67851;51.354;7.744;2023-04-25T13:30:41;5.82;;;1.63;;
78555;SDS011;67851;51.354;7.744;2023-04-25T13:33:07;4.70;;;1.55;;
78555;SDS011;67851;51.354;7.744;2023-04-25T13:35:33;7.40;;;1.73;;
78555;SDS011;67851;51.354;7.744;2023-04-25T13:38:00;7.53;;;1.48;;
78555;SDS011;67851;51.354;7.744;2023-04-25T13:40:25;4.10;;;1.73;;
78555;SDS011;67851;51.354;7.744;2023-04-25T13:42:52;8.20;;;2.05;;
78555;SDS011;67851;51.354;7.744;2023-04-25T13:45:17;4.93;;;1.30;;
78555;SDS011;67851;51.354;7.744;2023-04-25T13:47:43;7.20;;;1.50;;
78555;SDS011;67851;51.354;7.744;2023-04-25T13:50:09;4.57;;;1.35;;
78555;SDS011;67851;51.354;7.744;2023-04-25T13:52:35;4.15;;;1.10;;
78555;SDS011;67851;51.354;7.744;2023-04-25T13:55:00;4.88;;;1.35;;
78555;SDS011;67851;51.354;7.744;2023-04-25T13:57:28;5.30;;;1.27;;
78555;SDS011;67851;51.354;7.744;2023-04-25T13:59:55;3.20;;;1.02;;
78555;SDS011;67851;51.354;7.744;2023-04-25T14:02:21;3.65;;;1.27;;
78555;SDS011;67851;51.354;7.744;2023-04-25T14:04:47;4.72;;;1.50;;
78555;SDS011;67851;51.354;7.744;2023-04-25T14:07:13;10.82;;;1.77;;
78555;SDS011;67851;51.354;7.744;2023-04-25T14:09:41;3.35;;;1.08;;
78555;SDS011;67851;51.354;7.744;2023-04-25T14:12:07;4.60;;;1.58;;
78555;SDS011;67851;51.354;7.744;2023-04-25T14:14:33;8.35;;;1.42;;
78555;SDS011;67851;51.354;7.744;2023-04-25T14:16:58;7.00;;;1.50;;
78555;SDS011;67851;51.354;7.744;2023-04-25T14:19:24;3.95;;;1.30;;
78555;SDS011;67851;51.354;7.744;2023-04-25T14:21:49;3.83;;;1.42;;
78555;SDS011;67851;51.354;7.744;2023-04-25T14:24:15;7.35;;;1.85;;
78555;SDS011;67851;51.354;7.744;2023-04-25T14:26:41;5.55;;;1.45;;
78555;SDS011;67851;51.354;7.744;2023-04-25T14:29:07;4.80;;;1.75;;
78555;SDS011;67851;51.354;7.744;2023-04-25T14:31:34;5.30;;;1.20;;
78555;SDS011;67851;51.354;7.744;2023-04-25T14:33:59;9.43;;;1.45;;
78555;SDS011;67851;51.354;7.744;2023-04-25T14:36:26;5.53;;;1.10;;
78555;SDS011;67851;51.354;7.744;2023-04-25T14:38:53;2.75;;;1.23;;
78555;SDS011;67851;51.354;7.744;2023-04-25T14:41:19;4.80;;;1.20;;
78555;SDS011;67851;51.354;7.744;2023-04-25T14:43:45;2.67;;;1.00;;
78555;SDS011;67851;51.354;7.744;2023-04-25T14:46:11;11.27;;;1.85;;
78555;SDS011;67851;51.354;7.744;2023-04-25T14:48:37;9.55;;;1.70;;
78555;SDS011;67851;51.354;7.744;2023-04-25T14:51:02;6.25;;;1.80;;
78555;SDS011;67851;51.354;7.744;2023-04-25T14:53:28;5.82;;;1.48;;
78555;SDS011;67851;51.354;7.744;2023-04-25T14:55:53;5.03;;;1.40;;
78555;SDS011;67851;51.354;7.744;2023-04-25T14:58:19;23.15;;;2.10;;
78555;SDS011;67851;51.354;7.744;2023-04-25T15:00:45;10.50;;;2.42;;
78555;SDS011;67851;51.354;7.744;2023-04-25T15:03:11;6.28;;;1.92;;